首页
METAR-TAF:

METAR-TAF

机场 :

Greeley-Weld County Airport

格里利, 科羅拉多州, 美国

纬度: 40-26N, 经度: 104-38W, 海拔: 1420米

当前天气观测

该预报发布于16分钟前的23:56 UTC
风速11节,风向
温度 28°C
湿度 25%
气压 1012 hPa
能見度: 16.1公里
天空无云

METAR: KGXY 242356Z AUTO 17011KT 10SM CLR 28/06 A2989 RMK AO2 SLP090 T02780056 10289 20250 58005

时间: 18:12 (00:12 UTC)


TAF: 丢失

超过4000个机场的气象观测和天气预报(METAR&TAF报告)。

可查询的气象台以黄色和红色小点在地图上表示。

将鼠标移到小点上方,可查看气象台名称。

然后点击查看天气观测和预报。

如需切换地图:点击带黑十字的绿色按钮放大地图;点击带横线的绿色按钮缩小地图;或者点击绿色箭头查看邻近地区的地图。


METAR-TAF: